sensor_id;sensor_type;location;lat;lon;timestamp;pressure;altitude;pressure_sealevel;temperature;humidity
65227;BME280;51805;49.012;12.104;2023-05-25T00:01:34;98193.13;;;23.40;33.40
65227;BME280;51805;49.012;12.104;2023-05-25T00:04:00;98198.53;;;23.40;33.25
65227;BME280;51805;49.012;12.104;2023-05-25T00:06:25;98199.38;;;23.35;33.48
65227;BME280;51805;49.012;12.104;2023-05-25T00:08:50;98196.09;;;23.38;33.36
65227;BME280;51805;49.012;12.104;2023-05-25T00:11:16;98193.94;;;23.40;33.25
65227;BME280;51805;49.012;12.104;2023-05-25T00:13:41;98186.63;;;23.36;33.30
65227;BME280;51805;49.012;12.104;2023-05-25T00:16:06;98196.94;;;23.34;33.40
65227;BME280;51805;49.012;12.104;2023-05-25T00:18:31;98195.34;;;23.33;33.49
65227;BME280;51805;49.012;12.104;2023-05-25T00:20:57;98201.31;;;23.35;33.47
65227;BME280;51805;49.012;12.104;2023-05-25T00:23:22;98200.19;;;23.36;33.56
65227;BME280;51805;49.012;12.104;2023-05-25T00:25:48;98197.50;;;23.36;33.70
65227;BME280;51805;49.012;12.104;2023-05-25T00:28:13;98190.22;;;23.26;33.64
65227;BME280;51805;49.012;12.104;2023-05-25T00:30:38;98200.22;;;23.31;33.57
65227;BME280;51805;49.012;12.104;2023-05-25T00:33:04;98194.28;;;23.29;33.71
65227;BME280;51805;49.012;12.104;2023-05-25T00:35:29;98181.78;;;23.33;33.53
65227;BME280;51805;49.012;12.104;2023-05-25T00:37:54;98181.22;;;23.31;33.53
65227;BME280;51805;49.012;12.104;2023-05-25T00:40:20;98185.88;;;23.30;33.60
65227;BME280;51805;49.012;12.104;2023-05-25T00:42:46;98179.09;;;23.28;33.62
65227;BME280;51805;49.012;12.104;2023-05-25T00:45:11;98184.50;;;23.33;33.24
65227;BME280;51805;49.012;12.104;2023-05-25T00:47:38;98174.47;;;23.28;33.58
65227;BME280;51805;49.012;12.104;2023-05-25T00:50:07;98176.34;;;23.33;33.17
65227;BME280;51805;49.012;12.104;2023-05-25T00:52:33;98167.44;;;23.22;33.60
65227;BME280;51805;49.012;12.104;2023-05-25T00:54:59;98180.72;;;23.29;33.68
65227;BME280;51805;49.012;12.104;2023-05-25T00:57:27;98171.47;;;23.30;33.75
65227;BME280;51805;49.012;12.104;2023-05-25T00:59:54;98183.72;;;23.27;33.55
65227;BME280;51805;49.012;12.104;2023-05-25T01:02:23;98184.78;;;23.26;33.67
65227;BME280;51805;49.012;12.104;2023-05-25T01:04:55;98181.28;;;23.26;33.66
65227;BME280;51805;49.012;12.104;2023-05-25T01:07:22;98181.53;;;23.24;33.84
65227;BME280;51805;49.012;12.104;2023-05-25T01:09:49;98184.25;;;23.24;33.83
65227;BME280;51805;49.012;12.104;2023-05-25T01:12:18;98186.69;;;23.26;33.88
65227;BME280;51805;49.012;12.104;2023-05-25T01:14:46;98182.88;;;23.27;33.74
65227;BME280;51805;49.012;12.104;2023-05-25T01:17:11;98183.41;;;23.24;33.95
65227;BME280;51805;49.012;12.104;2023-05-25T01:19:37;98180.16;;;23.22;33.76
65227;BME280;51805;49.012;12.104;2023-05-25T01:24:48;98188.31;;;23.22;33.84
65227;BME280;51805;49.012;12.104;2023-05-25T01:27:22;98185.06;;;23.25;33.73
65227;BME280;51805;49.012;12.104;2023-05-25T01:29:49;98176.38;;;23.23;34.03
65227;BME280;51805;49.012;12.104;2023-05-25T01:32:16;98178.28;;;23.17;34.02
65227;BME280;51805;49.012;12.104;2023-05-25T01:34:42;98184.53;;;23.18;33.94
65227;BME280;51805;49.012;12.104;2023-05-25T01:37:08;98175.28;;;23.19;33.96
65227;BME280;51805;49.012;12.104;2023-05-25T01:39:33;98176.38;;;23.23;33.62
65227;BME280;51805;49.012;12.104;2023-05-25T01:41:58;98167.72;;;23.21;33.86
65227;BME280;51805;49.012;12.104;2023-05-25T01:44:24;98165.28;;;23.19;33.92
65227;BME280;51805;49.012;12.104;2023-05-25T01:46:53;98167.16;;;23.19;34.01
65227;BME280;51805;49.012;12.104;2023-05-25T01:49:28;98169.59;;;23.20;33.92
65227;BME280;51805;49.012;12.104;2023-05-25T01:52:17;98170.69;;;23.19;33.92
65227;BME280;51805;49.012;12.104;2023-05-25T01:54:46;98170.16;;;23.12;33.78
65227;BME280;51805;49.012;12.104;2023-05-25T01:57:14;98170.97;;;23.18;33.94
65227;BME280;51805;49.012;12.104;2023-05-25T01:59:45;98178.56;;;23.21;33.99
65227;BME280;51805;49.012;12.104;2023-05-25T02:02:13;98176.41;;;23.18;33.87
65227;BME280;51805;49.012;12.104;2023-05-25T02:04:38;98167.47;;;23.12;34.16
65227;BME280;51805;49.012;12.104;2023-05-25T02:07:04;98181.28;;;23.16;33.93
65227;BME280;51805;49.012;12.104;2023-05-25T02:09:30;98184.53;;;23.18;33.94
65227;BME280;51805;49.012;12.104;2023-05-25T02:11:55;98183.44;;;23.14;34.04
65227;BME280;51805;49.012;12.104;2023-05-25T02:14:20;98180.75;;;23.14;34.00
65227;BME280;51805;49.012;12.104;2023-05-25T02:16:46;98179.13;;;23.13;34.10
65227;BME280;51805;49.012;12.104;2023-05-25T02:19:11;98176.41;;;23.13;34.00
65227;BME280;51805;49.012;12.104;2023-05-25T02:21:37;98169.34;;;23.17;34.01
65227;BME280;51805;49.012;12.104;2023-05-25T02:24:02;98174.25;;;23.15;34.14
65227;BME280;51805;49.012;12.104;2023-05-25T02:26:27;98171.25;;;23.16;34.02
65227;BME280;51805;49.012;12.104;2023-05-25T02:28:53;98170.16;;;23.12;34.03
65227;BME280;51805;49.012;12.104;2023-05-25T02:31:18;98163.97;;;23.12;34.23
65227;BME280;51805;49.012;12.104;2023-05-25T02:33:43;98159.31;;;23.12;34.06
65227;BME280;51805;49.012;12.104;2023-05-25T02:36:08;98150.44;;;22.96;34.32
65227;BME280;51805;49.012;12.104;2023-05-25T02:38:34;98166.13;;;23.10;34.23
65227;BME280;51805;49.012;12.104;2023-05-25T02:40:59;98160.16;;;23.13;34.10
65227;BME280;51805;49.012;12.104;2023-05-25T02:43:24;98159.88;;;23.09;34.13
65227;BME280;51805;49.012;12.104;2023-05-25T02:45:50;98160.69;;;23.10;34.16
65227;BME280;51805;49.012;12.104;2023-05-25T02:48:15;98158.53;;;23.12;34.13
65227;BME280;51805;49.012;12.104;2023-05-25T02:50:40;98157.72;;;23.11;34.07
65227;BME280;51805;49.012;12.104;2023-05-25T02:53:05;98166.13;;;23.10;34.27
65227;BME280;51805;49.012;12.104;2023-05-25T02:55:31;98167.22;;;23.09;34.29
65227;BME280;51805;49.012;12.104;2023-05-25T02:57:56;98177.53;;;23.07;34.21
65227;BME280;51805;49.012;12.104;2023-05-25T03:00:21;98179.41;;;23.06;34.24
65227;BME280;51805;49.012;12.104;2023-05-25T03:02:47;98177.81;;;23.05;34.21
65227;BME280;51805;49.012;12.104;2023-05-25T03:05:12;98178.63;;;23.00;34.28
65227;BME280;51805;49.012;12.104;2023-05-25T03:07:37;98187.28;;;23.08;34.36
65227;BME280;51805;49.012;12.104;2023-05-25T03:10:03;98184.31;;;23.04;34.40
65227;BME280;51805;49.012;12.104;2023-05-25T03:12:28;98189.47;;;23.06;34.28
65227;BME280;51805;49.012;12.104;2023-05-25T03:14:53;98185.66;;;23.01;34.35
65227;BME280;51805;49.012;12.104;2023-05-25T03:17:19;98204.38;;;23.03;34.50
65227;BME280;51805;49.012;12.104;2023-05-25T03:19:44;98195.97;;;23.04;34.49
65227;BME280;51805;49.012;12.104;2023-05-25T03:22:09;98197.34;;;23.02;34.46
65227;BME280;51805;49.012;12.104;2023-05-25T03:24:34;98203.31;;;22.99;34.72
65227;BME280;51805;49.012;12.104;2023-05-25T03:27:00;98201.38;;;23.04;34.60
65227;BME280;51805;49.012;12.104;2023-05-25T03:29:25;98200.88;;;22.97;34.88
65227;BME280;51805;49.012;12.104;2023-05-25T03:31:50;98198.94;;;23.03;34.63
65227;BME280;51805;49.012;12.104;2023-05-25T03:34:16;98205.47;;;23.07;34.61
65227;BME280;51805;49.012;12.104;2023-05-25T03:36:41;98192.97;;;23.06;34.69
65227;BME280;51805;49.012;12.104;2023-05-25T03:39:06;98196.50;;;23.01;34.62
65227;BME280;51805;49.012;12.104;2023-05-25T03:41:31;98191.66;;;22.98;34.82
65227;BME280;51805;49.012;12.104;2023-05-25T03:43:57;98202.50;;;22.98;34.90
65227;BME280;51805;49.012;12.104;2023-05-25T03:46:22;98197.34;;;23.02;34.85
65227;BME280;51805;49.012;12.104;2023-05-25T03:48:47;98198.16;;;23.02;34.84
65227;BME280;51805;49.012;12.104;2023-05-25T03:51:12;98207.34;;;23.01;34.76
65227;BME280;51805;49.012;12.104;2023-05-25T03:53:38;98207.63;;;23.05;34.63
65227;BME280;51805;49.012;12.104;2023-05-25T03:56:03;98211.97;;;23.01;34.54
65227;BME280;51805;49.012;12.104;2023-05-25T03:58:29;98215.22;;;23.03;34.70
65227;BME280;51805;49.012;12.104;2023-05-25T04:00:54;98211.16;;;23.00;34.69
65227;BME280;51805;49.012;12.104;2023-05-25T04:03:19;98213.31;;;23.03;34.78
65227;BME280;51805;49.012;12.104;2023-05-25T04:05:45;98215.50;;;22.96;35.03
65227;BME280;51805;49.012;12.104;2023-05-25T04:08:14;98223.34;;;23.03;35.02
65227;BME280;51805;49.012;12.104;2023-05-25T04:10:40;98219.03;;;23.02;34.52
65227;BME280;51805;49.012;12.104;2023-05-25T04:13:05;98224.72;;;22.95;34.87
65227;BME280;51805;49.012;12.104;2023-05-25T04:15:30;98214.97;;;22.94;35.13
65227;BME280;51805;49.012;12.104;2023-05-25T04:17:55;98207.63;;;22.95;34.99
65227;BME280;51805;49.012;12.104;2023-05-25T04:20:21;98213.34;;;22.98;34.87
65227;BME280;51805;49.012;12.104;2023-05-25T04:22:46;98207.13;;;22.93;35.17
65227;BME280;51805;49.012;12.104;2023-05-25T04:25:11;98211.72;;;22.92;35.20
65227;BME280;51805;49.012;12.104;2023-05-25T04:27:37;98211.97;;;23.01;35.16
65227;BME280;51805;49.012;12.104;2023-05-25T04:30:03;98213.06;;;22.95;34.91
65227;BME280;51805;49.012;12.104;2023-05-25T04:32:28;98213.31;;;23.03;34.82
65227;BME280;51805;49.012;12.104;2023-05-25T04:34:54;98212.50;;;23.03;35.00
65227;BME280;51805;49.012;12.104;2023-05-25T04:37:19;98217.66;;;23.04;34.93
65227;BME280;51805;49.012;12.104;2023-05-25T04:39:45;98220.34;;;23.10;34.80
65227;BME280;51805;49.012;12.104;2023-05-25T04:42:10;98224.72;;;23.06;35.01
65227;BME280;51805;49.012;12.104;2023-05-25T04:44:35;98233.91;;;23.04;35.11
65227;BME280;51805;49.012;12.104;2023-05-25T04:47:00;98236.34;;;23.06;35.13
65227;BME280;51805;49.012;12.104;2023-05-25T04:49:26;98234.69;;;23.15;35.09
65227;BME280;51805;49.012;12.104;2023-05-25T04:51:51;98225.22;;;23.08;35.03
65227;BME280;51805;49.012;12.104;2023-05-25T04:54:17;98235.22;;;23.17;34.79
65227;BME280;51805;49.012;12.104;2023-05-25T04:56:43;98232.84;;;23.00;35.18
65227;BME280;51805;49.012;12.104;2023-05-25T04:59:08;98236.94;;;22.93;35.34
65227;BME280;51805;49.012;12.104;2023-05-25T05:01:34;98238.22;;;23.11;35.05
65227;BME280;51805;49.012;12.104;2023-05-25T05:03:59;98237.13;;;23.17;34.95
65227;BME280;51805;49.012;12.104;2023-05-25T05:06:24;98234.69;;;23.15;34.98
65227;BME280;51805;49.012;12.104;2023-05-25T05:08:50;98249.63;;;23.08;34.91
65227;BME280;51805;49.012;12.104;2023-05-25T05:11:15;98247.97;;;23.17;35.03
65227;BME280;51805;49.012;12.104;2023-05-25T05:13:40;98248.22;;;23.20;35.15
65227;BME280;51805;49.012;12.104;2023-05-25T05:16:05;98244.97;;;23.18;35.15
65227;BME280;51805;49.012;12.104;2023-05-25T05:18:31;98239.00;;;23.26;35.07
65227;BME280;51805;49.012;12.104;2023-05-25T05:20:56;98251.78;;;23.26;35.03
65227;BME280;51805;49.012;12.104;2023-05-25T05:23:21;98246.09;;;23.27;34.82
65227;BME280;51805;49.012;12.104;2023-05-25T05:25:47;98243.38;;;23.27;34.94
65227;BME280;51805;49.012;12.104;2023-05-25T05:28:12;98254.19;;;23.32;34.97
65227;BME280;51805;49.012;12.104;2023-05-25T05:30:37;98251.78;;;23.26;34.86
65227;BME280;51805;49.012;12.104;2023-05-25T05:33:03;98259.31;;;23.34;34.89
65227;BME280;51805;49.012;12.104;2023-05-25T05:35:28;98259.88;;;23.36;34.97
65227;BME280;51805;49.012;12.104;2023-05-25T05:37:53;98264.19;;;23.37;34.67
65227;BME280;51805;49.012;12.104;2023-05-25T05:40:18;98246.88;;;23.23;34.83
65227;BME280;51805;49.012;12.104;2023-05-25T05:42:44;98263.41;;;23.36;34.96
65227;BME280;51805;49.012;12.104;2023-05-25T05:45:09;98253.09;;;23.33;34.74
65227;BME280;51805;49.012;12.104;2023-05-25T05:47:34;98264.75;;;23.39;34.80
65227;BME280;51805;49.012;12.104;2023-05-25T05:50:00;98244.69;;;23.20;34.79
65227;BME280;51805;49.012;12.104;2023-05-25T05:52:25;98259.91;;;23.26;34.81
65227;BME280;51805;49.012;12.104;2023-05-25T05:54:50;98264.25;;;23.27;35.04
65227;BME280;51805;49.012;12.104;2023-05-25T05:57:16;98267.75;;;23.32;34.97
65227;BME280;51805;49.012;12.104;2023-05-25T05:59:41;98262.59;;;23.36;34.60
65227;BME280;51805;49.012;12.104;2023-05-25T06:02:06;98263.13;;;23.33;34.82
65227;BME280;51805;49.012;12.104;2023-05-25T06:04:32;98261.22;;;23.23;34.89
65227;BME280;51805;49.012;12.104;2023-05-25T06:06:57;98262.59;;;23.36;34.74
65227;BME280;51805;49.012;12.104;2023-05-25T06:09:23;98262.31;;;23.37;34.53
65227;BME280;51805;49.012;12.104;2023-05-25T06:11:48;98249.28;;;23.44;34.56
65227;BME280;51805;49.012;12.104;2023-05-25T06:14:14;98254.94;;;23.48;34.62
65227;BME280;51805;49.012;12.104;2023-05-25T06:16:39;98250.63;;;23.42;34.67
65227;BME280;51805;49.012;12.104;2023-05-25T06:19:04;98257.13;;;23.46;34.54
65227;BME280;51805;49.012;12.104;2023-05-25T06:21:30;98258.19;;;23.50;34.61
65227;BME280;51805;49.012;12.104;2023-05-25T06:23:55;98258.44;;;23.53;34.54
65227;BME280;51805;49.012;12.104;2023-05-25T06:26:20;98259.25;;;23.54;34.72
65227;BME280;51805;49.012;12.104;2023-05-25T06:28:46;98251.16;;;23.49;34.58
65227;BME280;51805;49.012;12.104;2023-05-25T06:31:11;98253.25;;;23.57;34.66
65227;BME280;51805;49.012;12.104;2023-05-25T06:33:36;98261.94;;;23.59;34.46
65227;BME280;51805;49.012;12.104;2023-05-25T06:36:01;98263.06;;;23.53;34.54
65227;BME280;51805;49.012;12.104;2023-05-25T06:38:27;98266.88;;;23.52;34.71
65227;BME280;51805;49.012;12.104;2023-05-25T06:40:52;98269.53;;;23.57;34.51
65227;BME280;51805;49.012;12.104;2023-05-25T06:43:18;98272.78;;;23.59;34.33
65227;BME280;51805;49.012;12.104;2023-05-25T06:45:43;98268.47;;;23.58;34.46
65227;BME280;51805;49.012;12.104;2023-05-25T06:48:08;98280.38;;;23.57;34.42
65227;BME280;51805;49.012;12.104;2023-05-25T06:50:33;98272.78;;;23.59;34.59
65227;BME280;51805;49.012;12.104;2023-05-25T06:52:59;98269.25;;;23.58;34.35
65227;BME280;51805;49.012;12.104;2023-05-25T06:55:24;98273.31;;;23.61;34.27
65227;BME280;51805;49.012;12.104;2023-05-25T06:57:49;98287.94;;;23.65;34.32
65227;BME280;51805;49.012;12.104;2023-05-25T07:00:17;98282.53;;;23.65;34.08
65227;BME280;51805;49.012;12.104;2023-05-25T07:02:42;98278.75;;;23.61;34.33
65227;BME280;51805;49.012;12.104;2023-05-25T07:05:07;98273.34;;;23.56;34.33
65227;BME280;51805;49.012;12.104;2023-05-25T07:07:33;98273.88;;;23.58;33.99
65227;BME280;51805;49.012;12.104;2023-05-25T07:09:58;98279.81;;;23.65;34.22
65227;BME280;51805;49.012;12.104;2023-05-25T07:12:23;98277.66;;;23.62;34.37
65227;BME280;51805;49.012;12.104;2023-05-25T07:14:49;98275.47;;;23.64;34.31
65227;BME280;51805;49.012;12.104;2023-05-25T07:17:15;98282.22;;;23.71;34.12
65227;BME280;51805;49.012;12.104;2023-05-25T07:19:41;98280.84;;;23.74;33.98
65227;BME280;51805;49.012;12.104;2023-05-25T07:22:07;98288.97;;;23.79;34.24
65227;BME280;51805;49.012;12.104;2023-05-25T07:24:32;98280.81;;;23.84;34.37
65227;BME280;51805;49.012;12.104;2023-05-25T07:26:57;98270.50;;;23.81;34.35
65227;BME280;51805;49.012;12.104;2023-05-25T07:29:23;98282.69;;;23.88;34.61
65227;BME280;51805;49.012;12.104;2023-05-25T07:31:48;98281.38;;;23.81;34.32
65227;BME280;51805;49.012;12.104;2023-05-25T07:34:13;98282.50;;;23.75;34.37
65227;BME280;51805;49.012;12.104;2023-05-25T07:36:38;98288.69;;;23.80;33.91
65227;BME280;51805;49.012;12.104;2023-05-25T07:39:04;98290.03;;;23.83;34.38
65227;BME280;51805;49.012;12.104;2023-05-25T07:41:29;98281.88;;;23.83;34.27
65227;BME280;51805;49.012;12.104;2023-05-25T07:43:55;98288.38;;;23.92;34.51
65227;BME280;51805;49.012;12.104;2023-05-25T07:46:20;98288.38;;;23.92;34.35
65227;BME280;51805;49.012;12.104;2023-05-25T07:48:45;98288.59;;;23.95;34.41
65227;BME280;51805;49.012;12.104;2023-05-25T07:51:10;98290.00;;;23.98;34.42
65227;BME280;51805;49.012;12.104;2023-05-25T07:53:36;98284.56;;;23.98;34.50
65227;BME280;51805;49.012;12.104;2023-05-25T07:56:01;98295.34;;;24.08;34.57
65227;BME280;51805;49.012;12.104;2023-05-25T07:58:26;98293.72;;;24.12;34.72
65227;BME280;51805;49.012;12.104;2023-05-25T08:00:52;98298.59;;;24.10;34.83
65227;BME280;51805;49.012;12.104;2023-05-25T08:03:17;98296.72;;;24.10;35.00
65227;BME280;51805;49.012;12.104;2023-05-25T08:05:42;98288.84;;;24.09;34.88
65227;BME280;51805;49.012;12.104;2023-05-25T08:08:08;98292.06;;;24.11;34.57
65227;BME280;51805;49.012;12.104;2023-05-25T08:10:33;98304.56;;;24.12;34.84
65227;BME280;51805;49.012;12.104;2023-05-25T08:12:59;98301.81;;;24.17;34.88
65227;BME280;51805;49.012;12.104;2023-05-25T08:15:25;98302.34;;;24.19;34.60
65227;BME280;51805;49.012;12.104;2023-05-25T08:17:51;98309.63;;;24.23;34.79
65227;BME280;51805;49.012;12.104;2023-05-25T08:20:16;98302.84;;;24.26;34.90
65227;BME280;51805;49.012;12.104;2023-05-25T08:22:42;98296.31;;;24.27;34.72
65227;BME280;51805;49.012;12.104;2023-05-25T08:25:07;98306.34;;;24.26;34.88
65227;BME280;51805;49.012;12.104;2023-05-25T08:27:32;98302.63;;;24.17;34.64
65227;BME280;51805;49.012;12.104;2023-05-25T08:29:58;98295.81;;;24.20;34.72
65227;BME280;51805;49.012;12.104;2023-05-25T08:32:23;98293.38;;;24.18;34.58
65227;BME280;51805;49.012;12.104;2023-05-25T08:34:48;98295.53;;;24.21;34.64
65227;BME280;51805;49.012;12.104;2023-05-25T08:37:14;98303.44;;;24.18;34.64
65227;BME280;51805;49.012;12.104;2023-05-25T08:39:39;98295.53;;;24.21;34.49
65227;BME280;51805;49.012;12.104;2023-05-25T08:42:04;98286.88;;;24.19;34.43
65227;BME280;51805;49.012;12.104;2023-05-25T08:44:30;98299.06;;;24.22;34.34
65227;BME280;51805;49.012;12.104;2023-05-25T08:46:55;98309.38;;;24.20;34.24
65227;BME280;51805;49.012;12.104;2023-05-25T08:49:21;98315.34;;;24.22;34.08
65227;BME280;51805;49.012;12.104;2023-05-25T08:51:50;98305.84;;;24.24;33.90
65227;BME280;51805;49.012;12.104;2023-05-25T08:54:18;98302.88;;;24.21;33.90
65227;BME280;51805;49.012;12.104;2023-05-25T08:56:51;98303.38;;;24.23;33.86
65227;BME280;51805;49.012;12.104;2023-05-25T08:59:44;98306.09;;;24.23;33.85
65227;BME280;51805;49.012;12.104;2023-05-25T09:02:29;98307.19;;;24.27;33.86
65227;BME280;51805;49.012;12.104;2023-05-25T09:04:58;98308.47;;;24.34;34.17
65227;BME280;51805;49.012;12.104;2023-05-25T09:07:24;98315.25;;;24.37;34.13
65227;BME280;51805;49.012;12.104;2023-05-25T09:09:50;98313.34;;;24.37;34.40
65227;BME280;51805;49.012;12.104;2023-05-25T09:12:16;98317.41;;;24.40;33.77
65227;BME280;51805;49.012;12.104;2023-05-25T09:14:41;98311.47;;;24.33;33.74
65227;BME280;51805;49.012;12.104;2023-05-25T09:17:06;98300.34;;;24.29;33.73
65227;BME280;51805;49.012;12.104;2023-05-25T09:19:34;98277.63;;;24.20;33.51
65227;BME280;51805;49.012;12.104;2023-05-25T09:21:59;98311.44;;;24.38;33.88
65227;BME280;51805;49.012;12.104;2023-05-25T09:24:25;98305.16;;;24.42;33.92
65227;BME280;51805;49.012;12.104;2023-05-25T09:26:50;98309.75;;;24.47;34.06
65227;BME280;51805;49.012;12.104;2023-05-25T09:29:15;98301.59;;;24.47;33.93
65227;BME280;51805;49.012;12.104;2023-05-25T09:31:41;98296.72;;;24.44;33.67
65227;BME280;51805;49.012;12.104;2023-05-25T09:34:13;98303.53;;;24.41;33.68
65227;BME280;51805;49.012;12.104;2023-05-25T09:36:42;98304.34;;;24.42;33.71
65227;BME280;51805;49.012;12.104;2023-05-25T09:39:08;98291.38;;;24.34;33.42
65227;BME280;51805;49.012;12.104;2023-05-25T09:41:34;98301.34;;;24.43;33.61
65227;BME280;51805;49.012;12.104;2023-05-25T09:44:00;98305.44;;;24.46;33.74
65227;BME280;51805;49.012;12.104;2023-05-25T09:46:25;98308.13;;;24.46;33.52
65227;BME280;51805;49.012;12.104;2023-05-25T09:48:50;98313.28;;;24.47;34.30
65227;BME280;51805;49.012;12.104;2023-05-25T09:51:16;98308.13;;;24.46;33.60
65227;BME280;51805;49.012;12.104;2023-05-25T09:53:41;98308.38;;;24.44;33.88
65227;BME280;51805;49.012;12.104;2023-05-25T09:56:07;98300.22;;;24.49;34.25
65227;BME280;51805;49.012;12.104;2023-05-25T09:58:32;98307.03;;;24.47;33.96
65227;BME280;51805;49.012;12.104;2023-05-25T10:00:57;98309.47;;;24.48;34.25
65227;BME280;51805;49.012;12.104;2023-05-25T10:03:23;98309.75;;;24.47;34.14
65227;BME280;51805;49.012;12.104;2023-05-25T10:05:48;98303.53;;;24.41;34.01
65227;BME280;51805;49.012;12.104;2023-05-25T10:08:16;98291.13;;;24.30;33.77
65227;BME280;51805;49.012;12.104;2023-05-25T10:10:44;98310.66;;;24.32;33.42
65227;BME280;51805;49.012;12.104;2023-05-25T10:13:11;98314.75;;;24.30;33.44
65227;BME280;51805;49.012;12.104;2023-05-25T10:15:39;98317.97;;;24.37;33.50
65227;BME280;51805;49.012;12.104;2023-05-25T10:18:08;98314.75;;;24.35;33.50
65227;BME280;51805;49.012;12.104;2023-05-25T10:20:34;98312.03;;;24.35;33.30
65227;BME280;51805;49.012;12.104;2023-05-25T10:23:07;98311.31;;;24.19;32.87
65227;BME280;51805;49.012;12.104;2023-05-25T10:25:38;98313.94;;;24.29;33.65
65227;BME280;51805;49.012;12.104;2023-05-25T10:28:11;98315.81;;;24.34;34.66
65227;BME280;51805;49.012;12.104;2023-05-25T10:30:38;98309.78;;;24.42;35.58
65227;BME280;51805;49.012;12.104;2023-05-25T10:33:05;98307.63;;;24.39;35.12
65227;BME280;51805;49.012;12.104;2023-05-25T10:35:31;98302.97;;;24.44;36.30
65227;BME280;51805;49.012;12.104;2023-05-25T10:37:58;98302.16;;;24.44;37.01
65227;BME280;51805;49.012;12.104;2023-05-25T10:40:24;98302.31;;;24.24;34.94
65227;BME280;51805;49.012;12.104;2023-05-25T10:42:50;98300.63;;;24.33;36.04
65227;BME280;51805;49.012;12.104;2023-05-25T10:45:15;98286.50;;;24.31;35.76
65227;BME280;51805;49.012;12.104;2023-05-25T10:47:41;98308.69;;;24.43;37.02
65227;BME280;51805;49.012;12.104;2023-05-25T10:50:21;98296.19;;;24.42;36.22
65227;BME280;51805;49.012;12.104;2023-05-25T10:53:04;98287.19;;;24.46;35.92
65227;BME280;51805;49.012;12.104;2023-05-25T10:55:41;98293.00;;;24.35;34.99
65227;BME280;51805;49.012;12.104;2023-05-25T10:58:08;98305.72;;;24.39;35.49
65227;BME280;51805;49.012;12.104;2023-05-25T11:00:34;98308.69;;;24.43;35.13
65227;BME280;51805;49.012;12.104;2023-05-25T11:02:59;98302.44;;;24.42;33.93
65227;BME280;51805;49.012;12.104;2023-05-25T11:08:09;98302.16;;;24.44;34.59
65227;BME280;51805;49.012;12.104;2023-05-25T11:18:53;98293.56;;;24.32;34.95
65227;BME280;51805;49.012;12.104;2023-05-25T11:23:53;98283.50;;;24.32;34.78
65227;BME280;51805;49.012;12.104;2023-05-25T11:26:26;98290.31;;;24.30;34.47
65227;BME280;51805;49.012;12.104;2023-05-25T11:28:53;98284.88;;;24.30;34.19
65227;BME280;51805;49.012;12.104;2023-05-25T11:31:20;98287.84;;;24.33;33.92
65227;BME280;51805;49.012;12.104;2023-05-25T11:33:46;98276.75;;;24.25;33.72
65227;BME280;51805;49.012;12.104;2023-05-25T11:36:11;98275.69;;;24.26;33.12
65227;BME280;51805;49.012;12.104;2023-05-25T11:38:41;98277.88;;;24.24;33.48
65227;BME280;51805;49.012;12.104;2023-05-25T11:41:14;98273.28;;;24.19;33.58
65227;BME280;51805;49.012;12.104;2023-05-25T11:43:40;98269.22;;;24.17;33.14
65227;BME280;51805;49.012;12.104;2023-05-25T11:46:08;98277.34;;;24.22;32.14
65227;BME280;51805;49.012;12.104;2023-05-25T11:48:33;98259.16;;;24.17;33.26
65227;BME280;51805;49.012;12.104;2023-05-25T11:51:05;98256.16;;;24.19;33.10
65227;BME280;51805;49.012;12.104;2023-05-25T11:53:30;98266.47;;;24.22;33.01
65227;BME280;51805;49.012;12.104;2023-05-25T11:55:56;98266.47;;;24.22;32.92
65227;BME280;51805;49.012;12.104;2023-05-25T11:58:21;98256.69;;;24.26;33.17
65227;BME280;51805;49.012;12.104;2023-05-25T12:00:46;98263.69;;;24.32;32.75
65227;BME280;51805;49.012;12.104;2023-05-25T12:03:30;98264.44;;;24.37;32.64
65227;BME280;51805;49.012;12.104;2023-05-25T12:05:55;98254.97;;;24.35;32.14
65227;BME280;51805;49.012;12.104;2023-05-25T12:08:34;98267.69;;;24.39;32.85
65227;BME280;51805;49.012;12.104;2023-05-25T12:10:59;98265.22;;;24.43;32.67
65227;BME280;51805;49.012;12.104;2023-05-25T12:13:24;98263.59;;;24.42;32.94
65227;BME280;51805;49.012;12.104;2023-05-25T12:15:51;98256.56;;;24.41;32.74
65227;BME280;51805;49.012;12.104;2023-05-25T12:18:16;98269.53;;;24.49;32.64
65227;BME280;51805;49.012;12.104;2023-05-25T12:20:42;98256.53;;;24.46;32.67
65227;BME280;51805;49.012;12.104;2023-05-25T12:23:07;98251.88;;;24.46;33.16
65227;BME280;51805;49.012;12.104;2023-05-25T12:25:33;98248.63;;;24.44;32.75
65227;BME280;51805;49.012;12.104;2023-05-25T12:28:11;98255.94;;;24.49;33.05
65227;BME280;51805;49.012;12.104;2023-05-25T12:30:37;98261.38;;;24.49;33.00
65227;BME280;51805;49.012;12.104;2023-05-25T12:33:02;98247.53;;;24.45;33.33
65227;BME280;51805;49.012;12.104;2023-05-25T12:35:28;98254.88;;;24.45;33.34
65227;BME280;51805;49.012;12.104;2023-05-25T12:38:14;98249.97;;;24.47;33.37
65227;BME280;51805;49.012;12.104;2023-05-25T12:40:40;98245.88;;;24.49;33.10
65227;BME280;51805;49.012;12.104;2023-05-25T12:43:13;98243.94;;;24.55;32.99
65227;BME280;51805;49.012;12.104;2023-05-25T12:45:39;98239.06;;;24.52;33.28
65227;BME280;51805;49.012;12.104;2023-05-25T12:48:05;98245.78;;;24.59;33.26
65227;BME280;51805;49.012;12.104;2023-05-25T12:50:30;98239.00;;;24.57;33.28
65227;BME280;51805;49.012;12.104;2023-05-25T12:53:00;98237.84;;;24.68;32.75
65227;BME280;51805;49.012;12.104;2023-05-25T12:55:30;98248.72;;;24.68;33.09
65227;BME280;51805;49.012;12.104;2023-05-25T12:58:00;98238.91;;;24.72;32.02
65227;BME280;51805;49.012;12.104;2023-05-25T13:00:36;98240.53;;;24.73;32.91
65227;BME280;51805;49.012;12.104;2023-05-25T13:03:03;98243.28;;;24.68;32.92